Time;durP1;ratioP1;P1;durP2;ratioP2;P2;SDS_P1;SDS_P2;PMS_P1;PMS_P2;Temp;Humidity;BMP_temperature;BMP_pressure;BME280_temperature;BME280_humidity;BME280_pressure;Samples;Min_cycle;Max_cycle;Signal;HPM_P1;HPM_P2
2022/09/06 00:00:58;;;;;;;5.03;2.80;;;;;;;9.78;58.54;101352.34;1689122;83;25594;-67
2022/09/06 00:03:27;;;;;;;8.88;2.72;;;;;;;9.75;58.23;101347.48;1711655;83;27724;-67
2022/09/06 00:05:54;;;;;;;4.90;2.83;;;;;;;9.72;58.15;101351.53;1711452;82;25569;-67
2022/09/06 00:08:20;;;;;;;4.33;2.58;;;;;;;9.69;58.18;101350.76;1711668;83;25801;-65
2022/09/06 00:10:47;;;;;;;5.65;2.45;;;;;;;9.67;58.39;101350.20;1710890;83;25596;-65
2022/09/06 00:13:13;;;;;;;9.68;3.00;;;;;;;9.63;58.41;101344.55;1712172;83;25610;-66
2022/09/06 00:15:39;;;;;;;4.33;2.90;;;;;;;9.59;58.76;101346.20;1708094;82;27537;-66
2022/09/06 00:18:07;;;;;;;4.97;2.50;;;;;;;9.56;58.35;101347.30;1713695;82;25719;-66
2022/09/06 00:20:36;;;;;;;5.92;2.50;;;;;;;9.52;58.36;101348.39;1710902;83;25738;-66
2022/09/06 00:23:04;;;;;;;3.80;2.40;;;;;;;9.48;58.36;101352.19;1712126;82;25769;-66
2022/09/06 00:25:32;;;;;;;7.15;2.60;;;;;;;9.45;58.36;101345.98;1712466;83;25494;-66
2022/09/06 00:28:04;;;;;;;3.70;2.10;;;;;;;9.41;58.33;101348.95;1710818;82;27474;-66
2022/09/06 00:30:32;;;;;;;7.03;2.60;;;;;;;9.38;58.57;101354.09;1689529;83;25698;-66
2022/09/06 00:32:58;;;;;;;4.42;2.42;;;;;;;9.35;58.79;101356.27;1682042;83;25657;-67
2022/09/06 00:35:26;;;;;;;4.35;2.27;;;;;;;9.34;58.69;101360.04;1712254;83;26181;-66
2022/09/06 00:38:00;;;;;;;3.67;2.17;;;;;;;9.30;58.75;101350.09;1712977;81;25535;-66
2022/09/06 00:40:29;;;;;;;4.92;2.50;;;;;;;9.28;58.70;101350.36;1711959;82;27100;-67
2022/09/06 00:42:57;;;;;;;7.33;2.70;;;;;;;9.26;58.96;101352.53;1712499;83;25818;-67
2022/09/06 00:45:26;;;;;;;5.55;2.77;;;;;;;9.25;59.02;101350.09;1711981;82;25639;-68
2022/09/06 00:47:53;;;;;;;3.62;2.55;;;;;;;9.21;59.12;101345.80;1701532;83;25660;-68
2022/09/06 00:50:20;;;;;;;4.85;2.30;;;;;;;9.19;59.19;101348.48;1706934;82;25407;-67
2022/09/06 00:52:49;;;;;;;5.35;2.15;;;;;;;9.13;59.18;101349.84;1701208;82;28234;-67
2022/09/06 00:55:18;;;;;;;3.60;2.70;;;;;;;9.12;59.54;101343.37;1703189;83;25728;-68
2022/09/06 00:57:49;;;;;;;4.83;2.60;;;;;;;9.09;59.61;101345.26;1704458;84;25799;-66
2022/09/06 01:00:14;;;;;;;3.77;1.95;;;;;;;9.08;59.72;101340.95;1705992;81;25641;-67
2022/09/06 01:02:42;;;;;;;6.15;2.58;;;;;;;9.07;59.80;101339.33;1705285;82;25699;-67
2022/09/06 01:05:10;;;;;;;6.58;2.58;;;;;;;9.06;59.98;101340.40;1703131;83;27612;-66
2022/09/06 01:07:54;;;;;;;6.85;2.60;;;;;;;9.02;60.03;101342.84;1704705;83;25767;-65
2022/09/06 01:10:41;;;;;;;8.93;3.08;;;;;;;9.00;59.91;101342.30;1701998;83;25622;-67
2022/09/06 01:13:34;;;;;;;5.10;2.60;;;;;;;8.98;59.79;101342.58;1701423;83;25702;-65
2022/09/06 01:16:14;;;;;;;7.17;2.75;;;;;;;8.94;59.88;101340.72;1675235;83;25617;-66
2022/09/06 01:19:18;;;;;;;5.53;2.62;;;;;;;8.91;60.04;101338.55;1673372;83;27500;-68
2022/09/06 01:21:50;;;;;;;4.33;2.50;;;;;;;8.88;60.41;101342.59;1674127;83;25586;-66
2022/09/06 01:24:57;;;;;;;5.28;2.20;;;;;;;8.86;60.29;101342.61;1652837;85;25723;-65
2022/09/06 01:28:02;;;;;;;4.05;2.60;;;;;;;8.83;60.32;101340.45;1671466;83;25657;-68
2022/09/06 01:30:32;;;;;;;4.62;2.55;;;;;;;8.81;60.68;101339.37;1673864;84;25792;-66
2022/09/06 01:33:13;;;;;;;5.33;2.75;;;;;;;8.75;60.94;101340.44;1673866;83;27531;-66
2022/09/06 01:35:54;;;;;;;4.90;2.52;;;;;;;8.74;60.96;101342.34;1673736;83;25895;-66
2022/09/06 01:38:21;;;;;;;4.25;2.55;;;;;;;8.70;61.04;101341.27;1673763;83;25640;-66
2022/09/06 01:40:47;;;;;;;4.92;2.80;;;;;;;8.69;61.02;101338.30;1673754;83;25668;-66
2022/09/06 01:43:18;;;;;;;6.90;2.33;;;;;;;8.68;61.33;101333.17;1673892;84;25506;-66
2022/09/06 01:46:11;;;;;;;4.83;2.80;;;;;;;8.65;61.14;101341.80;1673747;83;27512;-65
2022/09/06 01:48:55;;;;;;;3.80;2.20;;;;;;;8.63;61.15;101334.52;1648023;85;25789;-67
2022/09/06 01:51:58;;;;;;;8.55;2.42;;;;;;;8.59;61.23;101339.09;1700353;83;25471;-65
2022/09/06 01:54:46;;;;;;;3.10;2.30;;;;;;;8.57;61.37;101339.91;1707275;83;25553;-67
2022/09/06 01:57:36;;;;;;;3.60;2.42;;;;;;;8.57;61.38;101343.16;1708064;83;25471;-66
2022/09/06 02:00:13;;;;;;;3.17;2.35;;;;;;;8.55;61.43;101342.08;1707939;82;28423;-67
2022/09/06 02:02:45;;;;;;;4.42;2.58;;;;;;;8.52;61.76;101338.56;1709297;83;25641;-66
2022/09/06 02:05:23;;;;;;;7.33;2.62;;;;;;;8.50;61.67;101342.08;1702149;83;25759;-67
2022/09/06 02:07:54;;;;;;;4.80;2.67;;;;;;;8.50;61.84;101338.03;1708311;82;25452;-65
2022/09/06 02:10:33;;;;;;;6.45;2.67;;;;;;;8.47;61.62;101343.95;1709112;83;25657;-66
2022/09/06 02:13:03;;;;;;;4.30;3.02;;;;;;;8.48;61.88;101343.41;1706985;83;27531;-67
2022/09/06 02:15:34;;;;;;;4.22;2.62;;;;;;;8.48;62.02;101340.71;1701484;84;25372;-68
2022/09/06 02:18:18;;;;;;;3.12;2.37;;;;;;;8.48;62.19;101344.75;1690265;83;25683;-66
2022/09/06 02:20:52;;;;;;;5.25;2.58;;;;;;;8.47;62.05;101348.00;1678395;83;26198;-66
2022/09/06 02:23:23;;;;;;;3.90;2.30;;;;;;;8.49;62.46;101346.39;1701130;84;25699;-66
2022/09/06 02:26:00;;;;;;;4.67;2.42;;;;;;;8.49;62.35;101339.09;1704565;83;27554;-67
2022/09/06 02:28:27;;;;;;;5.15;2.40;;;;;;;8.51;62.50;101339.66;1702384;83;25928;-66
2022/09/06 02:31:00;;;;;;;3.02;2.10;;;;;;;8.54;62.42;101341.80;1706644;83;25730;-66
2022/09/06 02:33:31;;;;;;;3.67;2.30;;;;;;;8.57;62.47;101343.95;1703267;83;26149;-66
2022/09/06 02:36:02;;;;;;;4.60;2.25;;;;;;;8.60;62.41;101343.97;1699734;84;25476;-66
2022/09/06 02:38:29;;;;;;;4.20;2.45;;;;;;;8.64;62.48;101346.94;1697986;83;27475;-65
2022/09/06 02:40:56;;;;;;;3.27;2.17;;;;;;;8.67;62.47;101347.75;1702499;84;27419;-66
2022/09/06 02:43:22;;;;;;;3.35;1.92;;;;;;;8.70;62.74;101344.48;1681777;83;25437;-65
2022/09/06 02:45:48;;;;;;;6.08;2.40;;;;;;;8.71;62.65;101338.83;1677000;82;25469;-66
2022/09/06 02:48:14;;;;;;;6.83;2.42;;;;;;;8.74;62.66;101339.64;1710618;83;25416;-66
2022/09/06 02:50:40;;;;;;;10.82;2.87;;;;;;;8.76;62.60;101342.87;1712655;82;27586;-67
2022/09/06 02:53:10;;;;;;;5.05;2.65;;;;;;;8.76;62.54;101340.17;1711046;83;25639;-68
2022/09/06 02:55:38;;;;;;;7.42;2.42;;;;;;;8.76;62.46;101344.22;1713203;81;25574;-65
2022/09/06 02:58:06;;;;;;;5.42;2.90;;;;;;;8.78;62.40;101342.08;1710783;83;25633;-66
2022/09/06 03:00:33;;;;;;;5.45;3.08;;;;;;;8.81;62.54;101337.22;1688951;83;25710;-66
2022/09/06 03:03:00;;;;;;;6.25;2.72;;;;;;;8.81;62.38;101339.91;1712185;83;28108;-66
2022/09/06 03:05:27;;;;;;;6.33;2.42;;;;;;;8.81;62.59;101338.02;1711921;82;25743;-68
2022/09/06 03:07:55;;;;;;;5.60;2.90;;;;;;;8.83;62.71;101341.80;1711040;83;25574;-66
2022/09/06 03:10:23;;;;;;;3.95;2.55;;;;;;;8.85;62.69;101340.98;1711565;83;25743;-68
2022/09/06 03:12:50;;;;;;;3.62;2.10;;;;;;;8.88;62.77;101342.59;1712105;83;25554;-66
2022/09/06 03:15:17;;;;;;;4.78;2.60;;;;;;;8.90;62.86;101333.68;1712162;83;28236;-66
2022/09/06 03:17:44;;;;;;;5.75;2.52;;;;;;;8.93;62.94;101333.69;1690122;83;25661;-66
2022/09/06 03:20:12;;;;;;;5.70;2.15;;;;;;;8.95;62.99;101334.22;1712373;83;25621;-66
2022/09/06 03:22:39;;;;;;;4.87;2.45;;;;;;;8.98;63.03;101335.03;1689869;83;25507;-66
2022/09/06 03:25:08;;;;;;;3.75;2.08;;;;;;;9.01;63.22;101334.48;1689443;83;25644;-66
2022/09/06 03:27:35;;;;;;;6.60;2.55;;;;;;;9.04;63.33;101331.77;1712132;83;27547;-66
2022/09/06 03:30:04;;;;;;;4.70;2.33;;;;;;;9.06;63.32;101333.65;1711247;83;25412;-66
2022/09/06 03:32:31;;;;;;;11.43;3.30;;;;;;;9.10;63.20;101334.73;1712587;83;25674;-66
2022/09/06 03:34:58;;;;;;;12.35;3.25;;;;;;;9.12;63.09;101340.66;1711457;83;25564;-66
2022/09/06 03:37:24;;;;;;;16.17;4.10;;;;;;;9.14;63.05;101337.14;1712627;83;25720;-66
2022/09/06 03:39:50;;;;;;;7.78;2.70;;;;;;;9.16;63.09;101337.70;1663845;83;27572;-66
2022/09/06 03:42:16;;;;;;;5.17;2.35;;;;;;;9.18;63.12;101336.88;1689639;83;32892;-66
2022/09/06 03:44:42;;;;;;;6.28;2.40;;;;;;;9.20;63.19;101337.97;1712228;83;29824;-66
2022/09/06 03:47:08;;;;;;;4.25;2.50;;;;;;;9.22;62.88;101339.84;1713675;83;25791;-66
2022/09/06 03:49:34;;;;;;;3.92;2.30;;;;;;;9.23;62.74;101336.04;1710925;83;25759;-66
2022/09/06 03:52:01;;;;;;;5.92;2.42;;;;;;;9.22;62.98;101333.89;1710813;82;28379;-66
2022/09/06 03:54:28;;;;;;;6.22;2.02;;;;;;;9.22;62.66;101337.94;1710914;81;25539;-66
2022/09/06 03:56:56;;;;;;;7.55;2.60;;;;;;;9.22;62.75;101339.84;1688648;83;25455;-66
2022/09/06 03:59:22;;;;;;;6.75;2.70;;;;;;;9.19;62.55;101333.63;1711050;82;26164;-66
2022/09/06 04:01:48;;;;;;;5.97;2.75;;;;;;;9.16;62.44;101325.56;1711052;83;25643;-66
2022/09/06 04:04:14;;;;;;;5.97;3.10;;;;;;;9.14;62.51;101327.18;1711001;82;28251;-66
2022/09/06 04:06:40;;;;;;;8.43;3.00;;;;;;;9.13;62.53;101329.59;1710828;82;25897;-66
2022/09/06 04:09:06;;;;;;;4.35;2.83;;;;;;;9.12;62.68;101336.07;1711032;82;29611;-66
2022/09/06 04:11:33;;;;;;;5.10;2.62;;;;;;;9.11;62.69;101329.63;1710934;82;25587;-66
2022/09/06 04:13:59;;;;;;;5.00;3.42;;;;;;;9.11;62.89;101339.06;1710982;82;25438;-66
2022/09/06 04:16:25;;;;;;;15.30;8.00;;;;;;;9.10;62.87;101334.19;1710915;81;27596;-66
2022/09/06 04:18:52;;;;;;;21.15;9.98;;;;;;;9.09;62.72;101327.71;1683739;83;25811;-66
2022/09/06 04:21:19;;;;;;;10.03;3.40;;;;;;;9.08;62.90;101330.16;1710955;82;25739;-66
2022/09/06 04:23:45;;;;;;;3.22;2.30;;;;;;;9.07;62.90;101329.88;1710966;82;25742;-66
2022/09/06 04:26:11;;;;;;;6.33;3.15;;;;;;;9.06;63.14;101326.91;1710824;82;32922;-66
2022/09/06 04:28:37;;;;;;;6.05;2.55;;;;;;;9.06;62.91;101325.55;1710961;82;27510;-66
2022/09/06 04:31:04;;;;;;;5.40;2.40;;;;;;;9.04;63.14;101324.50;1711955;81;25401;-66
2022/09/06 04:33:33;;;;;;;7.97;2.85;;;;;;;9.02;63.21;101326.64;1681039;83;25558;-66
2022/09/06 04:36:02;;;;;;;4.37;2.43;;;;;;;9.02;63.02;101330.69;1711181;82;26093;-66
2022/09/06 04:38:32;;;;;;;4.67;2.37;;;;;;;9.02;63.26;101330.69;1711113;82;25656;-65
2022/09/06 04:40:58;;;;;;;10.53;2.42;;;;;;;9.03;63.04;101335.02;1710875;82;27703;-67
2022/09/06 04:43:24;;;;;;;7.00;2.72;;;;;;;9.02;63.22;101333.39;1710843;83;25864;-67
2022/09/06 04:45:51;;;;;;;7.72;2.70;;;;;;;9.01;63.19;101332.31;1710962;82;25576;-67
2022/09/06 04:48:17;;;;;;;7.83;2.50;;;;;;;9.01;63.38;101333.14;1712960;82;25474;-67
2022/09/06 04:50:44;;;;;;;6.40;2.52;;;;;;;9.01;63.38;101338.54;1696498;83;25694;-68
2022/09/06 04:53:10;;;;;;;7.87;2.47;;;;;;;9.04;63.53;101337.17;1714447;83;27503;-66
2022/09/06 04:55:37;;;;;;;5.83;2.72;;;;;;;9.03;63.59;101330.17;1714465;83;25816;-66
2022/09/06 04:58:05;;;;;;;6.25;2.50;;;;;;;9.05;63.73;101334.75;1695481;83;25612;-67
2022/09/06 05:00:33;;;;;;;7.00;2.50;;;;;;;9.07;63.81;101337.98;1695165;83;25854;-67
2022/09/06 05:02:59;;;;;;;8.20;2.87;;;;;;;9.07;64.07;101337.42;1675285;83;25492;-67
2022/09/06 05:05:25;;;;;;;8.25;3.02;;;;;;;9.12;63.99;101339.31;1677358;83;28271;-66
2022/09/06 05:07:55;;;;;;;7.55;2.72;;;;;;;9.12;64.00;101340.66;1689880;83;25584;-65
2022/09/06 05:10:23;;;;;;;11.73;2.58;;;;;;;9.16;64.22;101337.70;1690679;83;25637;-66
2022/09/06 05:12:52;;;;;;;13.78;4.60;;;;;;;9.18;64.34;101327.95;1699345;83;25454;-64
2022/09/06 05:15:21;;;;;;;33.90;16.12;;;;;;;9.22;64.37;101329.05;1677730;83;25518;-66
2022/09/06 05:17:47;;;;;;;55.87;22.40;;;;;;;9.24;64.44;101325.52;1701351;83;27537;-64
2022/09/06 05:20:15;;;;;;;14.93;4.65;;;;;;;9.30;64.50;101329.28;1663696;85;25582;-66
2022/09/06 05:22:41;;;;;;;55.95;8.48;;;;;;;9.36;64.49;101328.72;1644404;85;25695;-65
2022/09/06 05:25:10;;;;;;;39.60;6.50;;;;;;;9.45;64.59;101327.60;1649000;85;27597;-65
2022/09/06 05:27:36;;;;;;;23.62;5.47;;;;;;;9.54;64.74;101326.77;1674940;83;25693;-65
2022/09/06 05:30:04;;;;;;;12.10;4.62;;;;;;;9.62;64.81;101324.05;1689487;83;27577;-65
2022/09/06 05:32:30;;;;;;;25.72;3.10;;;;;;;9.73;64.77;101326.14;1698790;83;25576;-65
2022/09/06 05:34:56;;;;;;;8.63;2.85;;;;;;;9.82;64.88;101325.81;1692020;83;25646;-65
2022/09/06 05:37:23;;;;;;;15.93;3.42;;;;;;;9.93;64.49;101329.81;1701583;83;25492;-65
2022/09/06 05:39:49;;;;;;;13.58;2.85;;;;;;;10.06;64.28;101330.03;1707416;83;25537;-65
2022/09/06 05:42:15;;;;;;;43.05;18.85;;;;;;;10.20;64.54;101328.02;1668874;84;27494;-65
2022/09/06 05:44:41;;;;;;;33.40;10.53;;;;;;;10.35;64.29;101325.80;1692572;83;33119;-66
2022/09/06 05:47:09;;;;;;;15.78;4.33;;;;;;;10.54;64.38;101332.67;1691820;83;26355;-67
2022/09/06 05:49:53;;;;;;;7.70;2.67;;;;;;;10.71;63.67;101329.03;1716298;82;26195;-67
2022/09/06 05:52:18;;;;;;;9.35;2.70;;;;;;;10.87;63.49;101328.89;1704360;82;25688;-67
2022/09/06 05:55:11;;;;;;;9.90;2.58;;;;;;;11.08;63.04;101324.86;1700892;82;27856;-67
2022/09/06 05:58:00;;;;;;;12.35;2.80;;;;;;;11.29;62.90;101330.05;1556498;91;25705;-67
2022/09/06 06:00:50;;;;;;;8.38;2.85;;;;;;;11.53;62.53;101327.36;1462747;95;26488;-66
2022/09/06 06:03:21;;;;;;;5.92;2.33;;;;;;;11.80;61.93;101325.38;1467482;96;26196;-66
2022/09/06 06:06:01;;;;;;;7.62;2.20;;;;;;;12.04;61.70;101322.63;1423764;100;26135;-67
2022/09/06 06:08:37;;;;;;;12.23;2.50;;;;;;;12.29;60.62;101322.80;1387844;101;26265;-66
2022/09/06 06:13:48;;;;;;;5.15;1.57;;;;;;;12.82;59.81;101313.52;1339562;105;25902;-66
2022/09/06 06:38:47;;;;;;;4.67;1.57;;;;;;;15.02;54.71;101323.36;;;;
2022/09/06 06:45:21;;;;;;;;;;;;;;;;;;;;;
2022/09/06 06:50:07;;;;;;;;;;;;;;;;;;;;;
2022/09/06 06:52:55;;;;;;;;;;;;;;;;;;;;;
2022/09/06 07:09:59;;;;;;;;;;;;;;;;;;;;;
2022/09/06 07:12:33;;;;;;;2.37;0.90;;;;;;;18.88;44.46;101342.90;1236073;114;26024;-65
2022/09/06 07:14:59;;;;;;;4.33;1.45;;;;;;;19.25;43.64;101338.83;1261945;112;25678;-66
2022/09/06 07:17:25;;;;;;;5.90;0.98;;;;;;;19.64;42.65;101348.30;1273784;112;25795;-66
2022/09/06 07:19:53;;;;;;;3.72;1.10;;;;;;;19.93;42.23;101345.06;1232228;114;25992;-65
2022/09/06 07:22:19;;;;;;;5.12;1.37;;;;;;;20.29;41.70;101351.59;1234484;114;28467;-65
2022/09/06 07:24:45;;;;;;;3.92;0.90;;;;;;;20.62;40.85;101349.14;1234122;114;25992;-65
2022/09/06 07:27:12;;;;;;;2.92;0.72;;;;;;;20.95;40.57;101350.83;1234243;114;25715;-65
2022/09/06 07:29:39;;;;;;;2.85;0.90;;;;;;;21.16;39.02;101349.96;1248063;110;25968;-65
2022/09/06 07:32:05;;;;;;;2.65;0.80;;;;;;;21.31;38.46;101351.70;1289358;106;25660;-65
2022/09/06 07:34:32;;;;;;;1.45;0.80;;;;;;;21.39;37.18;101351.50;1343242;105;27637;-65
2022/09/06 07:36:59;;;;;;;5.00;1.10;;;;;;;21.51;37.02;101352.01;1378015;100;25884;-64
2022/09/06 07:39:25;;;;;;;5.50;1.20;;;;;;;21.86;37.13;101349.03;1386157;98;25705;-66
2022/09/06 07:41:52;;;;;;;1.25;0.90;;;;;;;22.18;36.22;101350.48;1475601;96;25981;-68
2022/09/06 07:44:19;;;;;;;6.60;0.98;;;;;;;22.38;35.56;101351.91;1461848;98;25830;-67
2022/09/06 07:46:45;;;;;;;6.40;1.12;;;;;;;22.66;35.75;101352.22;1461947;96;27612;-65
2022/09/06 07:49:12;;;;;;;6.42;1.30;;;;;;;22.96;35.15;101350.19;1490624;93;26019;-66
2022/09/06 07:51:38;;;;;;;2.72;1.05;;;;;;;23.28;35.34;101346.61;1454624;96;25657;-65
2022/09/06 07:54:06;;;;;;;5.65;2.40;;;;;;;23.67;34.29;101347.17;1476855;96;25810;-65
2022/09/06 07:56:33;;;;;;;3.10;1.27;;;;;;;23.97;33.77;101343.67;1461230;97;25780;-65
2022/09/06 07:58:59;;;;;;;4.55;0.95;;;;;;;24.20;33.28;101343.53;1476456;95;27383;-65
2022/09/06 08:01:33;;;;;;;2.52;0.98;;;;;;;24.28;32.22;101343.05;1473485;96;25754;-65
2022/09/06 08:04:12;;;;;;;5.83;1.50;;;;;;;24.37;32.00;101342.15;1479549;96;25856;-66
2022/09/06 08:06:42;;;;;;;1.35;0.65;;;;;;;24.66;31.65;101336.95;1479912;96;25614;-67
2022/09/06 08:09:10;;;;;;;4.90;1.02;;;;;;;24.91;30.84;101335.80;1513054;92;25864;-66
2022/09/06 08:11:37;;;;;;;4.60;0.95;;;;;;;24.88;29.64;101346.23;1541961;91;28165;-67
2022/09/06 08:14:07;;;;;;;4.42;1.10;;;;;;;24.70;30.61;101341.91;1634817;86;25741;-72
2022/09/06 08:16:35;;;;;;;1.67;0.80;;;;;;;24.39;30.57;101339.01;1650678;86;25754;-68
2022/09/06 08:19:09;;;;;;;1.80;0.65;;;;;;;24.22;30.62;101335.66;1645597;86;25672;-69
2022/09/06 08:21:36;;;;;;;1.65;0.80;;;;;;;24.15;31.35;101332.03;1647703;86;25733;-68
2022/09/06 08:24:05;;;;;;;1.65;0.75;;;;;;;24.05;31.76;101330.72;1649032;86;26934;-71
2022/09/06 08:26:35;;;;;;;3.65;0.90;;;;;;;23.98;30.73;101326.50;1646075;86;25695;-69
2022/09/06 08:29:05;;;;;;;2.42;0.57;;;;;;;23.80;30.87;101335.33;1646797;86;32591;-69
2022/09/06 08:31:34;;;;;;;2.10;0.55;;;;;;;23.62;29.84;101330.15;1649269;86;25757;-70
2022/09/06 08:34:01;;;;;;;3.23;0.70;;;;;;;23.47;30.03;101331.31;1650610;85;25745;-72
2022/09/06 08:36:29;;;;;;;1.52;0.90;;;;;;;23.21;30.04;101339.60;1652764;85;27331;-70
2022/09/06 08:38:58;;;;;;;2.02;0.70;;;;;;;22.93;30.58;101334.59;1615200;86;25322;-72
2022/09/06 08:41:53;;;;;;;;;;;;;;;22.99;31.04;101335.66;1649539;86;25694;-71
2022/09/06 08:44:48;;;;;;;1.35;0.80;;;;;;;23.11;30.27;101322.48;1649255;86;25433;-72
2022/09/06 08:47:19;;;;;;;2.25;0.98;;;;;;;23.28;31.84;101321.77;1614215;86;25855;-71
2022/09/06 08:49:51;;;;;;;1.00;0.60;;;;;;;23.63;30.72;101326.20;1615253;88;27341;-71
2022/09/06 08:52:53;;;;;;;2.95;0.62;;;;;;;23.61;29.49;101327.95;1616480;87;25730;-71
2022/09/06 08:55:36;;;;;;;1.25;0.62;;;;;;;23.43;29.61;101319.42;1611545;88;25796;-70
2022/09/06 08:58:44;;;;;;;2.33;0.57;;;;;;;23.49;30.71;101315.16;1618723;88;25816;-70
2022/09/06 09:01:15;;;;;;;;;;;;;;;23.75;30.39;101305.28;1499024;94;25828;-71
2022/09/06 09:03:43;;;;;;;3.17;0.78;;;;;;;24.01;29.21;101309.95;1513603;94;27460;-71
2022/09/06 09:06:13;;;;;;;1.57;0.60;;;;;;;23.80;29.40;101300.80;1508080;94;25856;-71
2022/09/06 09:09:04;;;;;;;1.50;0.55;;;;;;;23.95;29.70;101296.85;1450980;97;25502;-70
2022/09/06 09:11:36;;;;;;;1.05;0.40;;;;;;;24.25;29.37;101306.48;1469381;96;25438;-71
2022/09/06 09:14:27;;;;;;;0.75;0.60;;;;;;;24.33;28.91;101295.71;1465698;96;25447;-71
2022/09/06 09:17:13;;;;;;;1.52;0.60;;;;;;;24.52;28.29;101298.86;1457015;96;27357;-70
2022/09/06 09:19:41;;;;;;;0.55;0.35;;;;;;;24.75;28.46;101289.00;1457368;96;25903;-71
2022/09/06 09:22:09;;;;;;;2.62;0.50;;;;;;;24.85;27.91;101287.51;1468745;96;25855;-70
2022/09/06 09:24:36;;;;;;;3.58;1.55;;;;;;;24.84;27.71;101280.97;1476455;95;25849;-70
2022/09/06 09:27:12;;;;;;;1.02;0.60;;;;;;;25.04;28.04;101280.92;1505715;95;26539;-70
2022/09/06 09:29:57;;;;;;;2.17;0.70;;;;;;;25.30;28.78;101274.42;1452223;96;27338;-70
2022/09/06 09:32:35;;;;;;;1.55;0.40;;;;;;;25.51;28.06;101277.11;1513214;90;25955;-69
2022/09/06 09:35:32;;;;;;;1.35;0.60;;;;;;;25.51;27.02;101275.13;1573643;90;25639;-71
2022/09/06 09:38:09;;;;;;;3.87;0.60;;;;;;;25.85;26.89;101276.86;1587612;86;25687;-71
2022/09/06 09:40:54;;;;;;;0.95;0.45;;;;;;;26.00;27.64;101274.37;1627125;86;25816;-71
2022/09/06 09:43:25;;;;;;;2.30;0.50;;;;;;;26.20;26.96;101275.39;1626307;86;27459;-71
2022/09/06 09:46:21;;;;;;;0.30;0.30;;;;;;;26.23;25.68;101267.69;1621185;86;25452;-69
2022/09/06 09:49:13;;;;;;;2.55;0.45;;;;;;;26.21;25.62;101269.45;1657015;86;25908;-71
2022/09/06 09:51:48;;;;;;;4.22;0.72;;;;;;;26.47;26.01;101262.75;1658817;86;25677;-71
2022/09/06 09:54:19;;;;;;;0.37;0.30;;;;;;;26.82;25.96;101259.82;1646993;85;25780;-71
2022/09/06 09:56:53;;;;;;;0.53;0.30;;;;;;;27.18;24.85;101243.71;1654655;86;27411;-71
2022/09/06 09:59:48;;;;;;;0.40;0.40;;;;;;;26.96;23.82;101256.23;1607985;88;25385;-71
2022/09/06 10:02:34;;;;;;;0.20;0.20;;;;;;;26.72;23.97;101260.63;1565516;90;25873;-71
2022/09/06 10:05:06;;;;;;;1.12;0.40;;;;;;;26.47;23.75;101245.33;1545873;92;26475;-70
2022/09/06 10:07:33;;;;;;;1.62;0.40;;;;;;;26.49;24.25;101248.48;1562311;91;25782;-71
2022/09/06 10:10:22;;;;;;;1.45;0.30;;;;;;;26.64;24.53;101236.84;1569375;91;27533;-72
2022/09/06 10:13:17;;;;;;;0.82;0.40;;;;;;;26.98;24.12;101241.95;1548321;90;25792;-69
2022/09/06 10:15:43;;;;;;;1.07;0.50;;;;;;;27.17;23.42;101241.51;1571113;90;25844;-68
2022/09/06 10:18:34;;;;;;;0.85;0.50;;;;;;;27.17;22.89;101231.79;1556804;90;25830;-68
2022/09/06 10:21:04;;;;;;;2.47;1.72;;;;;;;27.01;22.94;101230.84;1556611;90;25558;-68
2022/09/06 10:23:36;;;;;;;0.55;0.47;;;;;;;27.14;23.17;101228.45;1530612;92;27415;-68
2022/09/06 10:26:20;;;;;;;0.75;0.50;;;;;;;27.57;22.97;101219.98;1565428;91;25824;-69
2022/09/06 10:28:46;;;;;;;0.95;0.40;;;;;;;28.01;22.57;101225.34;1569863;91;26414;-69
2022/09/06 10:31:49;;;;;;;0.50;0.40;;;;;;;28.22;21.77;101221.03;1574838;90;25813;-69
2022/09/06 10:34:42;;;;;;;2.95;0.90;;;;;;;28.25;21.61;101219.44;1567315;91;25731;-70
2022/09/06 10:37:49;;;;;;;1.95;0.53;;;;;;;28.20;21.20;101221.26;1575162;90;27373;-69
2022/09/06 10:40:27;;;;;;;1.10;0.30;;;;;;;28.17;21.39;101208.95;1576434;90;25743;-68
2022/09/06 10:42:58;;;;;;;1.75;0.50;;;;;;;28.43;21.35;101203.37;1550847;90;25874;-69
2022/09/06 10:45:44;;;;;;;1.98;0.47;;;;;;;28.83;21.41;101199.66;1583918;90;26488;-69
2022/09/06 10:48:19;;;;;;;0.47;0.37;;;;;;;29.14;20.91;101205.91;1584125;90;25769;-69
2022/09/06 10:51:09;;;;;;;0.65;0.40;;;;;;;29.22;20.25;101215.80;1583986;90;27345;-71
2022/09/06 10:53:56;;;;;;;2.02;0.90;;;;;;;28.93;20.01;101209.12;1600944;88;25860;-70
2022/09/06 10:56:39;;;;;;;0.75;0.40;;;;;;;28.85;20.10;101209.00;1629768;88;25830;-70
2022/09/06 10:59:41;;;;;;;1.05;0.30;;;;;;;28.86;19.98;101207.20;1629820;87;26283;-69
2022/09/06 11:02:48;;;;;;;0.33;0.30;;;;;;;28.98;20.25;101201.70;1590501;88;25856;-71
2022/09/06 11:05:22;;;;;;;1.35;0.50;;;;;;;29.31;20.40;101199.36;1592694;89;28061;-69
2022/09/06 11:08:02;;;;;;;0.47;0.30;;;;;;;29.65;20.27;101198.53;1604905;89;25829;-70
2022/09/06 11:10:36;;;;;;;1.77;0.53;;;;;;;29.66;19.35;101194.55;1579894;89;25749;-63
2022/09/06 11:13:16;;;;;;;1.55;0.72;;;;;;;29.76;19.56;101182.48;1605793;89;25569;-63
2022/09/06 11:16:06;;;;;;;0.98;0.80;;;;;;;29.96;19.21;101185.97;1605959;89;25763;-64
2022/09/06 11:18:50;;;;;;;1.45;0.50;;;;;;;29.89;18.66;101181.89;1605820;89;27413;-64
2022/09/06 11:22:06;;;;;;;0.47;0.47;;;;;;;30.15;19.00;101174.12;1597248;89;25783;-65
2022/09/06 11:24:53;;;;;;;1.82;0.40;;;;;;;30.61;18.87;101176.55;1597444;89;25754;-64
2022/09/06 11:27:33;;;;;;;2.77;0.50;;;;;;;30.88;18.69;101201.58;1589399;89;25909;-65
2022/09/06 11:30:04;;;;;;;6.95;0.82;;;;;;;30.88;18.69;101201.58;1596462;89;25759;-64
2022/09/06 11:32:47;;;;;;;1.10;0.45;;;;;;;30.90;18.33;101170.62;1579466;90;27352;-64
2022/09/06 11:35:31;;;;;;;1.42;0.30;;;;;;;31.02;18.50;101177.61;1600728;86;25854;-64
2022/09/06 11:38:03;;;;;;;0.37;0.33;;;;;;;31.00;17.95;101176.45;1649945;86;25562;-64
2022/09/06 11:40:40;;;;;;;0.80;0.37;;;;;;;30.71;17.74;101175.56;1650463;86;26353;-65
2022/09/06 11:43:31;;;;;;;1.15;0.40;;;;;;;30.58;17.94;101171.81;1657425;86;25676;-67
2022/09/06 11:45:58;;;;;;;0.62;0.40;;;;;;;30.64;17.78;101164.54;1657175;86;28104;-68
2022/09/06 11:48:33;;;;;;;3.92;0.62;;;;;;;30.64;17.78;101164.54;1627307;87;25771;-68
2022/09/06 11:51:05;;;;;;;1.02;0.40;;;;;;;30.47;17.87;101160.23;1651249;85;25611;-68
2022/09/06 11:53:49;;;;;;;0.60;0.40;;;;;;;30.46;17.79;101150.89;1646835;85;25639;-71
2022/09/06 11:56:30;;;;;;;1.47;0.30;;;;;;;30.04;17.41;101151.18;1645670;85;25591;-69
2022/09/06 11:59:04;;;;;;;1.57;0.40;;;;;;;29.49;18.00;101142.61;1658977;85;27392;-69
2022/09/06 12:01:35;;;;;;;6.33;0.72;;;;;;;29.42;18.38;101128.16;1638377;85;25804;-69
2022/09/06 12:04:06;;;;;;;1.45;0.25;;;;;;;29.41;18.19;101138.53;1629277;87;25782;-68
2022/09/06 12:06:38;;;;;;;1.07;0.45;;;;;;;29.06;18.03;101128.02;1638173;87;25699;-68
2022/09/06 12:09:51;;;;;;;0.60;0.42;;;;;;;28.80;18.49;101122.54;1608928;88;25893;-68
2022/09/06 12:12:51;;;;;;;0.80;0.50;;;;;;;28.73;18.81;101126.80;1596130;89;27419;-68
2022/09/06 12:15:45;;;;;;;3.20;0.60;;;;;;;28.84;19.22;101116.93;1595973;88;25860;-69
2022/09/06 12:18:33;;;;;;;2.02;0.40;;;;;;;29.21;19.12;101113.93;1595515;88;25698;-69
2022/09/06 12:21:01;;;;;;;1.50;0.57;;;;;;;29.28;18.51;101118.63;1598731;88;32613;-66
2022/09/06 12:23:39;;;;;;;0.90;0.70;;;;;;;28.95;18.77;101113.43;1594760;89;25824;-69
2022/09/06 12:26:08;;;;;;;3.25;0.60;;;;;;;28.99;19.20;101111.37;1597054;88;29470;-69
2022/09/06 12:28:51;;;;;;;1.27;0.60;;;;;;;29.19;18.98;101106.60;1597058;89;25831;-69
2022/09/06 12:31:29;;;;;;;1.75;0.88;;;;;;;29.25;18.64;101111.87;1596016;88;25836;-67
2022/09/06 12:33:57;;;;;;;3.00;0.60;;;;;;;29.33;18.82;101107.02;1603532;88;25993;-67
2022/09/06 12:36:30;;;;;;;1.70;0.45;;;;;;;29.53;18.79;101110.70;1595895;88;25735;-66
2022/09/06 12:39:03;;;;;;;4.60;0.57;;;;;;;29.55;18.39;101104.70;1592760;89;27390;-66
2022/09/06 12:41:41;;;;;;;3.22;0.50;;;;;;;29.46;18.55;101094.09;1593682;89;27228;-67
2022/09/06 12:44:08;;;;;;;0.55;0.35;;;;;;;29.60;18.58;101092.47;1591571;89;25743;-67
2022/09/06 12:46:35;;;;;;;1.50;0.47;;;;;;;29.68;18.51;101094.56;1608251;88;26360;-68
2022/09/06 12:49:09;;;;;;;1.45;0.40;;;;;;;29.75;18.29;101090.87;1621903;86;25439;-73
2022/09/06 12:51:39;;;;;;;1.35;0.40;;;;;;;29.66;18.06;101086.42;1610234;88;27367;-67